Time;durP1;ratioP1;P1;durP2;ratioP2;P2;SDS_P1;SDS_P2;PMS_P1;PMS_P2;Temp;Humidity;BMP_temperature;BMP_pressure;BME280_temperature;BME280_humidity;BME280_pressure;Samples;Min_cycle;Max_cycle;Signal;HPM_P1;HPM_P2
2022/10/06 00:00:47;;;;;;;5.07;2.90;;;15.30;99.90;;;;;;5075435;28;20400;-72
2022/10/06 00:03:13;;;;;;;4.03;3.63;;;15.20;99.90;;;;;;5075103;28;20444;-72
2022/10/06 00:05:39;;;;;;;3.63;3.30;;;15.20;99.90;;;;;;5074768;28;20823;-72
2022/10/06 00:08:05;;;;;;;4.83;3.53;;;15.20;99.90;;;;;;5073575;28;20427;-71
2022/10/06 00:10:31;;;;;;;4.00;3.17;;;15.20;99.90;;;;;;5074767;28;20645;-72
2022/10/06 00:12:57;;;;;;;4.17;3.40;;;15.10;99.90;;;;;;5075096;28;20404;-73
2022/10/06 00:15:26;;;;;;;4.10;3.60;;;15.00;99.90;;;;;;5075254;28;20176;-72
2022/10/06 00:17:52;;;;;;;3.50;3.10;;;15.10;99.90;;;;;;5075361;28;20819;-72
2022/10/06 00:20:18;;;;;;;4.80;3.57;;;15.20;99.90;;;;;;5074677;28;20482;-72
2022/10/06 00:22:46;;;;;;;4.30;3.90;;;15.10;99.90;;;;;;5074855;28;20542;-72
2022/10/06 00:25:16;;;;;;;3.53;3.00;;;15.00;99.90;;;;;;5074609;28;20439;-71
2022/10/06 00:27:43;;;;;;;5.77;3.57;;;15.00;99.90;;;;;;5074866;28;20485;-72
2022/10/06 00:30:12;;;;;;;4.00;3.10;;;15.00;99.90;;;;;;5074581;28;20461;-72
2022/10/06 00:32:38;;;;;;;4.27;3.87;;;15.10;99.90;;;;;;5074995;28;20408;-71
2022/10/06 00:35:06;;;;;;;3.43;3.13;;;15.10;99.90;;;;;;5074662;28;20445;-72
2022/10/06 00:37:36;;;;;;;4.87;3.40;;;15.10;99.90;;;;;;5075426;28;20764;-72
2022/10/06 00:40:08;;;;;;;5.90;3.30;;;15.00;99.90;;;;;;5074606;28;20742;-72
2022/10/06 00:42:33;;;;;;;4.83;3.60;;;15.00;99.90;;;;;;5074594;28;20750;-73
2022/10/06 00:45:04;;;;;;;3.50;2.70;;;15.00;99.90;;;;;;5073233;28;20424;-72
2022/10/06 00:47:31;;;;;;;4.27;3.57;;;15.00;99.90;;;;;;5074321;28;20222;-72
2022/10/06 00:49:59;;;;;;;5.80;2.83;;;15.00;99.90;;;;;;5074018;28;20491;-72
2022/10/06 00:52:29;;;;;;;4.87;3.63;;;15.00;99.90;;;;;;5073608;28;20416;-72
2022/10/06 00:54:57;;;;;;;7.87;3.17;;;15.00;99.90;;;;;;5074613;28;20835;-73
2022/10/06 00:57:25;;;;;;;6.40;3.80;;;15.00;99.90;;;;;;5073639;28;20507;-72
2022/10/06 00:59:52;;;;;;;5.33;3.50;;;15.10;99.90;;;;;;5074313;28;20429;-73
2022/10/06 01:02:25;;;;;;;4.53;3.27;;;15.20;99.90;;;;;;5073572;28;20441;-72
2022/10/06 01:04:54;;;;;;;3.93;3.63;;;15.20;99.90;;;;;;5074468;28;20401;-73
2022/10/06 01:07:22;;;;;;;5.00;3.47;;;15.30;99.90;;;;;;5074503;28;20437;-72
2022/10/06 01:09:48;;;;;;;7.23;3.13;;;15.40;99.90;;;;;;5074405;28;20413;-73
2022/10/06 01:12:14;;;;;;;3.27;2.77;;;15.30;99.90;;;;;;5074852;28;20487;-73
2022/10/06 01:14:40;;;;;;;5.73;3.90;;;15.30;99.90;;;;;;5074566;28;20241;-72
2022/10/06 01:17:28;;;;;;;4.33;2.80;;;15.20;99.90;;;;;;5074195;28;20404;-71
2022/10/06 01:19:59;;;;;;;3.37;3.00;;;15.30;99.90;;;;;;5074120;28;20479;-72
2022/10/06 01:22:53;;;;;;;4.00;3.70;;;15.30;99.90;;;;;;5074366;28;20408;-72
2022/10/06 01:25:19;;;;;;;5.17;3.63;;;15.20;99.90;;;;;;5050304;28;20511;-72
2022/10/06 01:27:52;;;;;;;3.40;3.10;;;15.20;99.90;;;;;;5073883;28;20419;-71
2022/10/06 01:30:22;;;;;;;5.70;3.60;;;15.10;99.90;;;;;;5073833;28;20392;-72
2022/10/06 01:32:48;;;;;;;6.90;3.30;;;15.00;99.90;;;;;;5072280;28;20407;-72
2022/10/06 01:35:13;;;;;;;4.60;3.57;;;15.00;99.90;;;;;;5072122;28;20442;-72
2022/10/06 01:37:39;;;;;;;4.97;3.03;;;15.00;99.90;;;;;;5074077;28;20243;-72
2022/10/06 01:40:05;;;;;;;4.43;3.73;;;15.10;99.90;;;;;;5073735;28;20170;-72
2022/10/06 01:42:31;;;;;;;5.53;3.33;;;15.00;99.90;;;;;;5073483;28;20173;-72
2022/10/06 01:44:58;;;;;;;3.47;2.90;;;15.00;99.90;;;;;;5072123;28;20424;-72
2022/10/06 01:47:23;;;;;;;3.73;2.90;;;15.00;99.90;;;;;;5073537;28;20411;-72
2022/10/06 01:49:49;;;;;;;3.30;2.97;;;15.00;99.90;;;;;;5073315;28;20932;-71
2022/10/06 01:52:14;;;;;;;5.07;3.67;;;15.00;99.90;;;;;;5073225;28;20524;-71
2022/10/06 01:54:40;;;;;;;5.63;3.80;;;14.90;99.90;;;;;;5071941;28;20356;-72
2022/10/06 01:57:09;;;;;;;4.60;3.27;;;14.80;99.90;;;;;;5072119;28;20204;-72
2022/10/06 01:59:35;;;;;;;3.73;3.43;;;14.80;99.90;;;;;;5072471;28;20205;-72
2022/10/06 02:02:01;;;;;;;4.40;4.00;;;14.70;99.90;;;;;;5073488;28;20416;-72
2022/10/06 02:04:26;;;;;;;5.40;3.87;;;14.70;99.90;;;;;;5073174;28;20211;-72
2022/10/06 02:06:54;;;;;;;6.83;3.97;;;14.60;99.90;;;;;;5073433;28;20273;-73
2022/10/06 02:09:22;;;;;;;3.90;3.50;;;14.70;99.90;;;;;;5072849;28;20195;-72
2022/10/06 02:11:48;;;;;;;5.60;4.23;;;14.70;99.90;;;;;;5072992;28;20418;-72
2022/10/06 02:14:16;;;;;;;3.40;3.10;;;14.70;99.90;;;;;;5073192;28;20821;-72
2022/10/06 02:16:42;;;;;;;7.90;3.17;;;14.60;99.90;;;;;;5073182;28;20410;-72
2022/10/06 02:19:08;;;;;;;4.90;3.50;;;14.60;99.90;;;;;;5072825;28;20428;-72
2022/10/06 02:21:34;;;;;;;6.27;3.50;;;14.60;99.90;;;;;;5073152;28;20407;-72
2022/10/06 02:24:00;;;;;;;6.33;4.17;;;14.50;99.90;;;;;;5072716;28;20172;-72
2022/10/06 02:26:26;;;;;;;5.13;4.03;;;14.50;99.90;;;;;;5072771;28;20426;-72
2022/10/06 02:28:51;;;;;;;4.57;3.80;;;14.50;99.90;;;;;;5072954;28;20197;-72
2022/10/06 02:31:17;;;;;;;5.63;3.17;;;14.50;99.90;;;;;;5072938;28;20963;-72
2022/10/06 02:33:43;;;;;;;7.30;3.70;;;14.60;99.90;;;;;;5072674;28;20190;-72
2022/10/06 02:36:11;;;;;;;7.30;4.50;;;14.60;99.90;;;;;;5072225;28;20173;-71
2022/10/06 02:38:37;;;;;;;6.93;4.00;;;14.50;99.90;;;;;;5071085;28;20436;-72
2022/10/06 02:41:03;;;;;;;4.40;4.00;;;14.50;99.90;;;;;;5070886;28;20468;-73
2022/10/06 02:43:30;;;;;;;4.83;3.73;;;14.50;99.90;;;;;;5072631;28;20657;-72
2022/10/06 02:46:05;;;;;;;6.63;3.77;;;14.50;99.90;;;;;;5071474;28;20231;-72
2022/10/06 02:48:32;;;;;;;5.77;3.53;;;14.50;99.90;;;;;;5073236;28;20439;-72
2022/10/06 02:51:07;;;;;;;5.43;3.57;;;14.40;99.90;;;;;;5071778;28;20435;-73
2022/10/06 02:53:33;;;;;;;9.20;3.73;;;14.30;99.90;;;;;;5072820;28;20451;-72
2022/10/06 02:56:05;;;;;;;6.07;3.70;;;14.40;99.90;;;;;;5072469;28;20898;-72
2022/10/06 02:58:31;;;;;;;5.50;4.00;;;14.30;99.90;;;;;;5073072;28;20196;-72
2022/10/06 03:01:12;;;;;;;4.30;3.30;;;14.30;99.90;;;;;;5072770;28;20401;-72
2022/10/06 03:03:38;;;;;;;4.93;3.83;;;14.40;99.90;;;;;;5074807;28;20392;-73
2022/10/06 03:06:23;;;;;;;6.73;4.27;;;14.30;99.90;;;;;;5073439;28;20407;-72
2022/10/06 03:08:57;;;;;;;4.33;3.77;;;14.20;99.90;;;;;;5073830;28;20434;-72
2022/10/06 03:11:35;;;;;;;6.40;4.30;;;14.30;99.90;;;;;;5072917;28;20410;-72
2022/10/06 03:14:01;;;;;;;5.83;3.70;;;14.30;99.90;;;;;;5072917;28;20452;-72
2022/10/06 03:16:29;;;;;;;4.90;3.90;;;14.50;99.90;;;;;;5071924;28;20412;-73
2022/10/06 03:18:55;;;;;;;5.80;4.00;;;14.60;99.90;;;;;;5072303;28;20199;-72
2022/10/06 03:21:29;;;;;;;4.17;3.77;;;14.60;99.90;;;;;;5075665;28;20411;-72
2022/10/06 03:23:56;;;;;;;6.33;3.50;;;14.70;99.90;;;;;;5075868;28;20453;-72
2022/10/06 03:26:36;;;;;;;5.00;3.90;;;14.70;99.90;;;;;;5076025;28;20777;-72
2022/10/06 03:29:02;;;;;;;4.87;4.37;;;14.60;99.90;;;;;;5075872;28;20484;-72
2022/10/06 03:31:28;;;;;;;5.57;3.83;;;14.50;99.90;;;;;;5075516;28;20415;-72
2022/10/06 03:33:55;;;;;;;8.93;4.00;;;14.50;99.90;;;;;;5074886;28;20454;-72
2022/10/06 03:36:22;;;;;;;5.87;3.73;;;14.40;99.90;;;;;;5074577;28;20414;-72
2022/10/06 03:38:48;;;;;;;7.00;3.40;;;14.30;99.90;;;;;;5076624;28;20576;-72
2022/10/06 03:41:19;;;;;;;5.63;4.20;;;14.40;99.90;;;;;;5076372;28;20405;-72
2022/10/06 03:43:46;;;;;;;3.77;3.37;;;14.30;99.90;;;;;;5076157;28;20636;-72
2022/10/06 03:46:15;;;;;;;5.73;4.10;;;14.30;99.90;;;;;;5074601;28;20882;-72
2022/10/06 03:48:41;;;;;;;11.00;3.93;;;14.30;99.90;;;;;;5075835;28;20419;-71
2022/10/06 03:51:12;;;;;;;4.80;3.70;;;14.20;99.90;;;;;;5075661;28;20435;-71
2022/10/06 03:53:39;;;;;;;6.53;4.20;;;14.30;99.90;;;;;;5075981;28;20433;-72
2022/10/06 03:56:09;;;;;;;5.73;3.63;;;14.30;99.90;;;;;;5075709;28;20407;-72
2022/10/06 03:58:37;;;;;;;6.60;3.33;;;14.30;99.90;;;;;;5076140;28;20427;-71
2022/10/06 04:01:06;;;;;;;4.30;3.73;;;14.30;99.90;;;;;;5075172;28;20454;-72
2022/10/06 04:03:32;;;;;;;4.07;3.67;;;14.40;99.90;;;;;;5075692;28;20419;-71
2022/10/06 04:06:01;;;;;;;4.03;3.17;;;14.60;99.90;;;;;;5075867;28;20428;-72
2022/10/06 04:08:28;;;;;;;3.50;3.10;;;14.70;99.90;;;;;;5074018;28;20226;-72
2022/10/06 04:11:02;;;;;;;4.10;3.53;;;14.70;99.90;;;;;;5075240;28;20453;-72
2022/10/06 04:13:28;;;;;;;6.50;3.67;;;14.70;99.90;;;;;;5075210;28;20444;-72
2022/10/06 04:15:53;;;;;;;9.40;3.90;;;14.80;99.90;;;;;;5074997;28;20813;-73
2022/10/06 04:18:19;;;;;;;3.90;3.50;;;14.80;99.90;;;;;;5075339;28;20232;-72
2022/10/06 04:20:44;;;;;;;4.07;3.67;;;14.90;99.90;;;;;;5075395;28;20179;-72
2022/10/06 04:23:10;;;;;;;7.20;3.73;;;15.00;99.90;;;;;;5075264;28;20266;-70
2022/10/06 04:25:35;;;;;;;3.20;2.90;;;15.10;99.90;;;;;;5075454;28;20176;-71
2022/10/06 04:28:01;;;;;;;5.77;3.67;;;15.10;99.90;;;;;;5075434;28;20194;-72
2022/10/06 04:30:27;;;;;;;3.80;3.50;;;15.10;99.90;;;;;;5074203;28;20251;-72
2022/10/06 04:32:53;;;;;;;4.80;4.23;;;15.10;99.90;;;;;;5073729;28;20199;-72
2022/10/06 04:35:19;;;;;;;7.93;4.43;;;15.20;99.90;;;;;;5075040;28;20540;-73
2022/10/06 04:37:45;;;;;;;6.97;4.50;;;15.10;99.90;;;;;;5075074;28;20196;-72
2022/10/06 04:40:11;;;;;;;4.77;3.93;;;15.20;99.90;;;;;;5072412;28;20177;-72
2022/10/06 04:42:37;;;;;;;6.70;3.73;;;15.10;99.90;;;;;;5071686;28;20508;-73
2022/10/06 04:45:03;;;;;;;7.73;4.70;;;15.10;99.90;;;;;;5071495;28;20974;-72
2022/10/06 04:47:29;;;;;;;7.30;5.07;;;15.10;99.90;;;;;;5064933;28;20182;-72
2022/10/06 04:49:55;;;;;;;7.23;4.70;;;15.00;99.90;;;;;;5065435;28;20441;-72
2022/10/06 04:52:21;;;;;;;7.47;4.70;;;15.00;99.90;;;;;;5065334;28;20959;-71
2022/10/06 04:54:47;;;;;;;7.73;4.93;;;14.90;99.90;;;;;;5065441;28;20217;-72
2022/10/06 04:57:12;;;;;;;6.50;4.33;;;14.80;99.90;;;;;;5064457;28;20426;-71
2022/10/06 05:02:22;;;;;;;6.50;4.37;;;15.00;99.90;;;;;;5064802;28;20186;-72
2022/10/06 05:04:48;;;;;;;5.40;4.10;;;15.00;99.90;;;;;;5065054;28;20429;-71
2022/10/06 05:07:13;;;;;;;8.43;4.07;;;15.10;99.90;;;;;;5065063;28;20706;-72
2022/10/06 05:09:39;;;;;;;6.53;3.53;;;15.10;99.90;;;;;;5065144;28;20215;-73
2022/10/06 05:12:05;;;;;;;4.60;4.10;;;15.20;99.90;;;;;;5065050;28;20762;-72
2022/10/06 05:14:32;;;;;;;6.80;3.80;;;15.30;99.90;;;;;;5063427;28;20207;-71
2022/10/06 05:16:58;;;;;;;4.30;3.90;;;15.40;99.90;;;;;;5065084;28;20659;-72
2022/10/06 05:19:23;;;;;;;4.57;3.40;;;15.60;99.90;;;;;;5068671;28;20449;-72
2022/10/06 05:21:49;;;;;;;5.80;4.57;;;15.70;99.90;;;;;;5073902;28;20775;-72
2022/10/06 05:24:14;;;;;;;5.67;3.70;;;15.80;99.90;;;;;;5073670;28;20230;-72
2022/10/06 05:26:40;;;;;;;4.73;3.90;;;15.90;99.90;;;;;;5073788;28;20618;-72
2022/10/06 05:29:06;;;;;;;4.53;3.47;;;15.90;99.90;;;;;;5071837;28;21640;-73
2022/10/06 05:31:33;;;;;;;8.17;3.93;;;15.90;99.90;;;;;;5072387;28;20272;-72
2022/10/06 05:33:59;;;;;;;6.73;4.20;;;15.80;99.90;;;;;;5073542;28;20205;-72
2022/10/06 05:36:28;;;;;;;4.27;3.70;;;15.80;99.90;;;;;;5073567;28;20911;-72
2022/10/06 05:38:55;;;;;;;6.30;3.70;;;15.80;99.90;;;;;;5072102;28;20684;-72
2022/10/06 05:41:22;;;;;;;6.03;4.20;;;15.80;99.90;;;;;;5073472;28;20442;-73
2022/10/06 05:43:49;;;;;;;6.70;5.03;;;15.90;99.90;;;;;;5072980;28;20407;-73
2022/10/06 05:46:22;;;;;;;6.30;4.63;;;15.90;99.90;;;;;;5070621;28;20441;-73
2022/10/06 05:48:50;;;;;;;6.33;3.70;;;16.00;99.90;;;;;;5073763;28;20428;-73
2022/10/06 05:51:18;;;;;;;5.33;4.40;;;16.10;99.90;;;;;;5072643;28;20442;-73
2022/10/06 05:53:43;;;;;;;8.13;4.60;;;16.10;99.90;;;;;;5072810;28;20449;-73
2022/10/06 05:56:15;;;;;;;5.00;4.03;;;16.10;99.90;;;;;;5073228;28;20864;-73
2022/10/06 05:58:42;;;;;;;9.73;7.93;;;16.10;99.90;;;;;;5073598;28;20192;-73
2022/10/06 06:01:13;;;;;;;7.50;6.07;;;16.20;99.90;;;;;;5073568;28;20415;-73
2022/10/06 06:03:41;;;;;;;10.63;5.60;;;16.30;99.90;;;;;;5073197;28;20396;-71
2022/10/06 06:06:26;;;;;;;8.77;5.50;;;16.20;99.90;;;;;;5073373;28;20494;-71
2022/10/06 06:09:05;;;;;;;13.87;11.83;;;16.30;99.90;;;;;;5072751;28;20523;-72
2022/10/06 06:11:31;;;;;;;6.87;6.17;;;16.20;99.90;;;;;;5073770;28;20400;-71
2022/10/06 06:14:05;;;;;;;15.20;13.60;;;16.20;99.90;;;;;;5077474;28;20463;-72
2022/10/06 06:16:32;;;;;;;12.70;9.83;;;16.30;99.90;;;;;;5073105;28;20392;-71
2022/10/06 06:18:59;;;;;;;13.50;10.37;;;16.40;99.90;;;;;;5073092;28;20836;-72
2022/10/06 06:21:25;;;;;;;8.80;7.70;;;16.50;99.90;;;;;;5072989;28;20402;-73
2022/10/06 06:23:51;;;;;;;10.87;6.00;;;16.60;99.90;;;;;;5072346;28;20440;-72
2022/10/06 06:26:18;;;;;;;8.60;5.87;;;16.70;99.90;;;;;;5073311;28;20416;-72
2022/10/06 06:28:45;;;;;;;8.63;5.60;;;16.80;99.90;;;;;;5072977;28;20770;-73
2022/10/06 06:31:19;;;;;;;7.40;5.17;;;16.80;99.90;;;;;;5072039;28;20506;-72
2022/10/06 06:33:46;;;;;;;7.07;4.67;;;16.90;99.90;;;;;;5073129;28;20436;-72
2022/10/06 06:36:25;;;;;;;7.20;4.43;;;16.80;99.90;;;;;;5073279;28;20477;-72
2022/10/06 06:38:53;;;;;;;7.97;4.63;;;16.90;99.90;;;;;;5073153;28;20430;-73
2022/10/06 06:41:24;;;;;;;7.80;5.57;;;16.80;99.90;;;;;;5075583;28;20407;-73
2022/10/06 06:43:51;;;;;;;4.90;4.30;;;17.00;99.90;;;;;;5073890;28;20414;-73
2022/10/06 06:46:19;;;;;;;5.83;5.33;;;17.10;99.90;;;;;;5072662;28;20424;-73
2022/10/06 06:48:46;;;;;;;5.43;4.93;;;17.20;99.90;;;;;;5073399;28;20499;-73
2022/10/06 06:51:12;;;;;;;5.57;4.03;;;17.30;99.90;;;;;;5072669;28;20465;-73
2022/10/06 06:53:39;;;;;;;7.00;4.63;;;17.40;99.90;;;;;;5073096;28;20440;-72
2022/10/06 06:56:07;;;;;;;5.50;3.47;;;17.30;99.90;;;;;;5062652;28;20412;-72
2022/10/06 06:58:33;;;;;;;6.70;4.80;;;17.30;99.90;;;;;;5076257;28;20434;-72
2022/10/06 07:01:12;;;;;;;4.67;4.27;;;17.50;99.90;;;;;;5075523;28;20416;-72
2022/10/06 07:03:44;;;;;;;7.90;5.73;;;17.50;99.90;;;;;;5076561;28;20436;-72
2022/10/06 07:06:12;;;;;;;4.80;4.30;;;17.50;99.90;;;;;;5076698;28;20384;-71
2022/10/06 07:08:43;;;;;;;5.03;3.70;;;17.60;99.90;;;;;;5076283;28;20424;-72
2022/10/06 07:11:18;;;;;;;4.53;2.87;;;17.70;99.90;;;;;;5075664;28;20435;-72
2022/10/06 07:13:44;;;;;;;5.10;4.10;;;17.70;99.90;;;;;;5076849;28;20488;-73
2022/10/06 07:27:51;;;;;;;5.93;4.63;;;17.60;99.90;;;;;;5076184;28;20940;-71
2022/10/06 07:30:20;;;;;;;3.87;3.57;;;17.60;99.90;;;;;;5076040;28;20416;-71
2022/10/06 07:32:48;;;;;;;8.63;5.77;;;17.80;99.90;;;;;;5076586;28;20432;-72
2022/10/06 07:35:15;;;;;;;6.83;5.17;;;18.00;99.90;;;;;;5076402;28;20518;-72
2022/10/06 07:37:40;;;;;;;5.70;4.83;;;18.10;99.90;;;;;;5075988;28;20472;-71
2022/10/06 07:40:07;;;;;;;8.50;5.63;;;18.40;99.90;;;;;;5075913;28;20404;-71
2022/10/06 07:42:50;;;;;;;10.63;5.63;;;18.30;99.90;;;;;;5075570;28;20664;-73
2022/10/06 07:45:37;;;;;;;7.10;5.27;;;18.50;99.90;;;;;;5073936;28;20537;-72
2022/10/06 07:48:14;;;;;;;7.00;4.73;;;18.60;99.90;;;;;;5075410;28;20420;-69
2022/10/06 07:50:41;;;;;;;4.37;2.73;;;18.40;99.90;;;;;;5075550;28;20854;-70
2022/10/06 07:53:10;;;;;;;4.20;2.33;;;18.20;99.90;;;;;;5074754;28;20404;-70
2022/10/06 07:55:38;;;;;;;3.10;2.50;;;18.10;99.90;;;;;;5074811;28;20807;-69
2022/10/06 07:58:10;;;;;;;4.33;2.30;;;18.10;99.90;;;;;;5075345;28;20487;-72
2022/10/06 08:00:35;;;;;;;3.17;2.20;;;18.10;99.90;;;;;;5074916;28;20381;-72
2022/10/06 08:03:01;;;;;;;4.10;2.33;;;18.30;99.90;;;;;;5075292;28;20423;-72
2022/10/06 08:05:26;;;;;;;3.30;2.60;;;18.40;99.90;;;;;;5075433;28;20181;-73
2022/10/06 08:07:52;;;;;;;3.97;2.97;;;18.20;99.90;;;;;;5075299;28;20196;-74
2022/10/06 08:10:19;;;;;;;6.00;2.37;;;18.30;99.90;;;;;;5075473;28;20200;-70
2022/10/06 08:12:45;;;;;;;4.00;2.73;;;18.20;99.90;;;;;;5075032;28;20678;-71
2022/10/06 08:15:13;;;;;;;3.90;2.30;;;18.30;99.90;;;;;;5074460;28;20451;-70
2022/10/06 08:17:39;;;;;;;3.80;2.10;;;18.40;99.90;;;;;;5076219;28;20178;-71
2022/10/06 08:20:07;;;;;;;4.70;2.37;;;18.40;99.90;;;;;;5075096;28;20914;-70
2022/10/06 08:22:34;;;;;;;3.20;2.00;;;18.50;99.90;;;;;;5072726;28;20435;-72
2022/10/06 08:25:00;;;;;;;2.27;1.60;;;18.80;99.90;;;;;;5074827;28;20424;-71
2022/10/06 08:27:27;;;;;;;3.70;1.80;;;18.30;99.90;;;;;;5075330;28;20462;-71
2022/10/06 08:29:54;;;;;;;4.17;2.40;;;18.20;99.90;;;;;;5074630;28;20297;-71
2022/10/06 08:32:23;;;;;;;3.43;2.23;;;18.20;99.90;;;;;;5075035;28;20404;-71
2022/10/06 08:34:49;;;;;;;5.20;1.93;;;18.20;99.90;;;;;;5074955;28;20443;-71
2022/10/06 08:37:22;;;;;;;3.87;2.07;;;18.40;99.90;;;;;;5075284;28;20542;-73
2022/10/06 08:39:51;;;;;;;3.17;2.27;;;18.40;99.90;;;;;;5075080;28;20385;-73
2022/10/06 08:42:26;;;;;;;5.13;2.37;;;18.40;99.90;;;;;;5055199;28;20760;-70
2022/10/06 08:45:01;;;;;;;3.40;2.03;;;18.40;99.90;;;;;;5073149;28;20384;-70
2022/10/06 08:47:32;;;;;;;6.30;2.40;;;18.30;99.90;;;;;;5074572;28;20941;-71
2022/10/06 08:49:58;;;;;;;5.10;2.53;;;18.30;99.90;;;;;;5072289;28;20439;-72
2022/10/06 08:52:50;;;;;;;2.80;2.37;;;18.30;99.90;;;;;;5072126;28;20424;-73
2022/10/06 08:55:46;;;;;;;3.00;2.10;;;18.30;99.90;;;;;;5071537;28;20185;-72
2022/10/06 08:58:38;;;;;;;3.70;2.30;;;18.40;99.90;;;;;;5074460;28;20420;-72
2022/10/06 09:01:18;;;;;;;3.77;1.87;;;18.30;99.90;;;;;;5074298;28;20381;-72
2022/10/06 09:03:48;;;;;;;4.13;2.30;;;18.50;99.90;;;;;;5074592;28;20747;-72
2022/10/06 09:06:39;;;;;;;3.37;1.53;;;18.60;99.90;;;;;;5073110;28;20420;-71
2022/10/06 09:10:00;;;;;;;4.77;2.60;;;18.40;99.90;;;;;;5074021;28;20419;-71
2022/10/06 09:12:52;;;;;;;7.77;2.37;;;18.40;99.90;;;;;;5011516;28;20414;-72
2022/10/06 09:15:37;;;;;;;6.50;2.40;;;18.60;99.90;;;;;;5053348;28;20456;-72
2022/10/06 09:18:09;;;;;;;3.70;1.90;;;18.70;99.90;;;;;;5053295;28;20791;-73
2022/10/06 09:20:38;;;;;;;3.37;1.93;;;18.40;99.90;;;;;;5054566;28;20423;-72
2022/10/06 09:23:09;;;;;;;3.53;1.97;;;18.20;99.90;;;;;;5054152;28;20433;-72
2022/10/06 09:25:36;;;;;;;5.10;1.50;;;18.20;99.90;;;;;;5053624;28;20782;-72
2022/10/06 09:28:07;;;;;;;2.70;1.53;;;18.40;99.90;;;;;;5053955;28;20460;-72
2022/10/06 09:30:32;;;;;;;5.13;1.90;;;18.30;99.90;;;;;;5054012;28;20381;-72
2022/10/06 09:33:03;;;;;;;3.13;2.00;;;18.10;99.90;;;;;;5053462;28;20827;-71
2022/10/06 09:35:30;;;;;;;3.87;1.70;;;18.20;99.90;;;;;;5054094;28;20668;-72
2022/10/06 09:37:56;;;;;;;5.20;2.20;;;18.30;99.90;;;;;;5054031;28;20471;-72
2022/10/06 09:40:37;;;;;;;4.30;2.13;;;18.40;99.90;;;;;;5057266;28;20443;-73
2022/10/06 09:43:20;;;;;;;4.43;2.83;;;18.40;99.90;;;;;;5073480;28;20158;-73
2022/10/06 09:45:46;;;;;;;4.97;1.93;;;18.90;99.90;;;;;;5072545;28;20416;-71
2022/10/06 09:48:23;;;;;;;6.67;2.00;;;19.10;99.90;;;;;;5073242;28;20991;-72
2022/10/06 09:51:26;;;;;;;3.33;1.60;;;19.00;99.90;;;;;;5073467;28;20729;-72
2022/10/06 09:54:13;;;;;;;3.77;1.60;;;18.60;99.90;;;;;;5011718;28;20527;-72
2022/10/06 09:56:43;;;;;;;3.00;1.80;;;18.60;99.90;;;;;;5069943;28;20503;-72
2022/10/06 09:59:41;;;;;;;2.73;1.50;;;18.60;99.90;;;;;;5073463;28;20424;-71
2022/10/06 10:02:35;;;;;;;5.70;1.80;;;18.80;99.90;;;;;;5073437;28;20458;-71
2022/10/06 10:05:02;;;;;;;3.07;2.13;;;19.10;99.90;;;;;;5072940;28;20420;-72
2022/10/06 10:07:30;;;;;;;3.97;1.53;;;18.90;99.90;;;;;;5072745;28;20412;-72
2022/10/06 10:10:23;;;;;;;2.90;1.87;;;19.30;99.90;;;;;;5073068;28;20400;-72
2022/10/06 10:12:55;;;;;;;5.10;2.10;;;19.10;99.90;;;;;;5072931;28;20397;-72
2022/10/06 10:15:20;;;;;;;4.43;2.23;;;18.90;99.90;;;;;;5073022;28;21092;-72
2022/10/06 10:17:51;;;;;;;3.50;1.80;;;18.80;99.90;;;;;;5073109;28;20448;-72
2022/10/06 10:20:37;;;;;;;5.97;2.27;;;18.60;99.90;;;;;;5074401;28;20181;-72
2022/10/06 10:23:34;;;;;;;2.60;1.90;;;18.70;99.90;;;;;;5073040;28;20780;-72
2022/10/06 10:26:07;;;;;;;4.30;1.97;;;18.60;99.90;;;;;;5073588;28;20411;-72
2022/10/06 10:28:32;;;;;;;4.43;1.50;;;18.60;99.90;;;;;;5074335;28;20982;-72
2022/10/06 10:31:11;;;;;;;3.80;1.80;;;18.80;99.90;;;;;;5072929;28;20487;-71
2022/10/06 10:34:24;;;;;;;3.63;1.73;;;19.00;99.90;;;;;;5073390;28;20189;-71
2022/10/06 10:37:05;;;;;;;3.00;1.40;;;18.80;99.90;;;;;;5046295;28;20461;-70
2022/10/06 10:39:34;;;;;;;4.47;1.87;;;18.50;99.90;;;;;;5072937;28;20419;-71
2022/10/06 10:42:04;;;;;;;5.50;1.70;;;18.50;99.90;;;;;;5073034;28;20403;-70
2022/10/06 10:44:41;;;;;;;7.13;2.00;;;18.90;99.90;;;;;;5073394;28;20412;-70
2022/10/06 10:47:18;;;;;;;3.13;1.57;;;18.90;99.90;;;;;;5071644;28;20415;-71
2022/10/06 10:49:54;;;;;;;4.70;1.33;;;19.10;99.90;;;;;;5073084;28;20527;-70
2022/10/06 10:52:26;;;;;;;2.73;1.70;;;19.40;99.90;;;;;;5073283;28;20424;-71
2022/10/06 10:55:14;;;;;;;4.63;2.00;;;19.50;99.90;;;;;;5072838;28;20532;-71
2022/10/06 10:57:42;;;;;;;4.10;1.50;;;19.50;99.90;;;;;;5073017;28;20373;-71
2022/10/06 11:00:21;;;;;;;3.23;1.50;;;20.20;99.90;;;;;;5072632;28;20416;-71
2022/10/06 11:02:49;;;;;;;3.63;1.70;;;20.50;99.90;;;;;;5073051;28;20471;-72
2022/10/06 11:05:34;;;;;;;7.00;1.80;;;21.10;99.90;;;;;;5073122;28;20457;-72
2022/10/06 11:08:24;;;;;;;4.83;2.20;;;22.10;99.90;;;;;;5072864;28;20419;-72
2022/10/06 11:10:56;;;;;;;3.50;1.50;;;23.30;99.90;;;;;;5072835;28;20400;-72
2022/10/06 11:13:45;;;;;;;5.83;1.70;;;22.90;99.90;;;;;;5073125;28;20897;-71
2022/10/06 11:16:57;;;;;;;3.53;1.80;;;22.40;99.90;;;;;;5070139;28;20420;-72
2022/10/06 11:19:26;;;;;;;5.57;1.87;;;21.40;99.90;;;;;;5069913;28;20435;-72
2022/10/06 11:22:01;;;;;;;4.17;1.40;;;21.20;99.90;;;;;;5072885;28;20397;-72
2022/10/06 11:24:31;;;;;;;4.30;2.03;;;21.30;99.90;;;;;;5072983;28;20850;-73
2022/10/06 11:27:23;;;;;;;4.13;1.83;;;21.30;99.90;;;;;;5073992;28;20483;-72
2022/10/06 11:30:15;;;;;;;4.80;2.20;;;21.00;99.90;;;;;;5068855;28;20423;-70
2022/10/06 11:33:12;;;;;;;5.10;1.60;;;20.90;99.90;;;;;;5072611;28;20408;-72
2022/10/06 11:35:42;;;;;;;2.97;1.43;;;20.80;99.90;;;;;;5072938;28;20440;-74
2022/10/06 11:38:29;;;;;;;3.50;1.73;;;21.20;99.90;;;;;;5072534;28;20416;-74
2022/10/06 11:41:25;;;;;;;4.83;1.40;;;20.70;99.90;;;;;;5074012;28;20446;-74
2022/10/06 11:43:59;;;;;;;5.03;1.80;;;20.60;99.90;;;;;;5075005;28;20495;-71
2022/10/06 11:46:48;;;;;;;3.77;1.77;;;20.20;99.90;;;;;;5073259;28;20423;-72
2022/10/06 11:49:29;;;;;;;4.00;1.80;;;20.20;99.90;;;;;;5075816;28;20950;-71
2022/10/06 11:52:10;;;;;;;3.30;1.70;;;20.10;99.90;;;;;;5061765;28;20451;-71
2022/10/06 11:54:38;;;;;;;4.17;1.70;;;20.40;99.90;;;;;;5076479;28;20428;-72
2022/10/06 11:57:22;;;;;;;4.90;2.20;;;20.60;99.90;;;;;;5076068;28;20404;-72
2022/10/06 11:59:54;;;;;;;3.47;1.90;;;21.20;99.90;;;;;;5075744;28;20407;-73
2022/10/06 12:02:28;;;;;;;3.47;1.20;;;21.70;99.90;;;;;;5075620;28;20831;-73
2022/10/06 12:05:17;;;;;;;4.50;1.70;;;21.90;99.90;;;;;;5075691;28;20414;-74
2022/10/06 12:07:58;;;;;;;8.17;2.00;;;21.90;99.90;;;;;;5075609;28;20835;-72
2022/10/06 12:10:26;;;;;;;2.77;1.60;;;21.40;99.90;;;;;;5075688;28;20400;-72
2022/10/06 12:13:08;;;;;;;3.83;1.70;;;20.90;99.90;;;;;;5075551;28;20778;-73
2022/10/06 12:15:57;;;;;;;5.30;1.60;;;20.60;99.90;;;;;;5074906;28;20448;-71
2022/10/06 12:18:31;;;;;;;5.47;2.00;;;20.40;99.90;;;;;;5074509;28;20455;-72
2022/10/06 12:21:13;;;;;;;2.10;1.50;;;20.70;99.90;;;;;;5075858;28;20755;-70
2022/10/06 12:24:17;;;;;;;2.20;1.43;;;20.70;99.90;;;;;;5075096;28;20393;-70
2022/10/06 12:26:49;;;;;;;5.30;1.60;;;20.70;99.90;;;;;;5066871;28;20557;-71
2022/10/06 12:29:47;;;;;;;5.00;1.97;;;20.50;99.90;;;;;;5075338;28;20762;-71
2022/10/06 12:32:21;;;;;;;7.00;1.73;;;20.60;99.90;;;;;;5074982;28;20585;-71
2022/10/06 12:34:55;;;;;;;5.07;1.80;;;20.50;99.90;;;;;;5074922;28;20432;-73
2022/10/06 12:37:34;;;;;;;6.30;1.90;;;20.50;99.90;;;;;;5074786;28;20388;-74
2022/10/06 12:40:45;;;;;;;3.10;1.47;;;20.70;99.90;;;;;;5075282;28;20392;-70
2022/10/06 12:43:16;;;;;;;7.97;2.00;;;20.30;99.90;;;;;;5074300;28;20405;-71
2022/10/06 12:46:06;;;;;;;4.10;1.70;;;19.90;99.90;;;;;;5074138;28;20416;-70
2022/10/06 12:48:44;;;;;;;3.57;1.93;;;20.20;99.90;;;;;;5075171;28;20424;-70
2022/10/06 12:51:39;;;;;;;4.30;1.90;;;20.20;99.90;;;;;;5075056;28;20447;-71
2022/10/06 12:54:09;;;;;;;5.53;1.90;;;20.30;99.90;;;;;;5074558;28;20466;-70
2022/10/06 12:56:41;;;;;;;7.30;2.10;;;20.50;99.90;;;;;;5075028;28;20399;-71
2022/10/06 12:59:34;;;;;;;2.80;1.40;;;20.30;99.90;;;;;;5075406;28;20416;-72
2022/10/06 13:02:19;;;;;;;5.73;1.90;;;20.10;99.90;;;;;;5073574;28;20503;-72
2022/10/06 13:04:57;;;;;;;6.63;1.60;;;20.10;99.90;;;;;;5075758;28;20470;-71
2022/10/06 13:07:27;;;;;;;5.10;1.73;;;20.30;99.90;;;;;;5075421;28;20475;-72
2022/10/06 13:10:14;;;;;;;9.60;1.90;;;20.30;99.90;;;;;;5076044;28;20471;-71
2022/10/06 13:12:46;;;;;;;2.90;1.43;;;20.50;99.90;;;;;;5075612;28;20839;-72
2022/10/06 13:15:22;;;;;;;4.63;1.50;;;20.70;99.90;;;;;;5076146;28;20455;-72
2022/10/06 13:18:09;;;;;;;4.70;1.67;;;20.80;99.90;;;;;;5078006;28;20515;-73
2022/10/06 13:20:52;;;;;;;5.27;2.07;;;21.10;99.90;;;;;;5076941;28;20415;-73
2022/10/06 13:23:31;;;;;;;3.77;1.73;;;20.70;99.90;;;;;;5076666;28;20431;-71
2022/10/06 13:26:04;;;;;;;3.97;1.70;;;20.40;99.90;;;;;;5074551;28;20890;-70